Time;durP1;ratioP1;P1;durP2;ratioP2;P2;SDS_P1;SDS_P2;PMS_P1;PMS_P2;Temp;Humidity;BMP_temperature;BMP_pressure;BME280_temperature;BME280_humidity;BME280_pressure;Samples;Min_cycle;Max_cycle;Signal;HPM_P1;HPM_P2
2022/09/30 00:01:21;;;;;;;1.47;0.83;;;;;;;;;;5068886;28;20737;-68
2022/09/30 00:03:48;;;;;;;1.97;0.87;;;;;;;;;;5068943;28;20028;-67
2022/09/30 00:06:15;;;;;;;0.30;0.20;;;;;;;;;;5069918;28;20039;-67
2022/09/30 00:08:42;;;;;;;3.30;0.60;;;;;;;;;;5073159;28;20041;-67
2022/09/30 00:11:15;;;;;;;1.33;0.50;;;;;;;;;;5073692;28;20388;-68
2022/09/30 00:13:42;;;;;;;1.03;0.63;;;;;;;;;;5057980;28;20036;-67
2022/09/30 00:16:10;;;;;;;1.33;0.60;;;;;;;;;;5060096;28;20478;-66
2022/09/30 00:18:38;;;;;;;1.20;0.60;;;;;;;;;;5070987;28;20025;-67
2022/09/30 00:21:07;;;;;;;0.50;0.40;;;;;;;;;;5068302;28;20115;-67
2022/09/30 00:23:35;;;;;;;0.97;0.70;;;;;;;;;;5068406;28;20028;-66
2022/09/30 00:26:03;;;;;;;0.93;0.43;;;;;;;;;;5068655;28;20032;-67
2022/09/30 00:28:29;;;;;;;0.70;0.60;;;;;;;;;;5069391;28;20094;-67
2022/09/30 00:31:07;;;;;;;1.00;0.60;;;;;;;;;;5073655;28;20027;-67
2022/09/30 00:33:34;;;;;;;1.63;0.93;;;;;;;;;;5072897;28;20021;-67
2022/09/30 00:36:02;;;;;;;0.50;0.40;;;;;;;;;;5073314;28;20038;-67
2022/09/30 00:38:29;;;;;;;1.27;0.67;;;;;;;;;;5073296;28;20017;-67
2022/09/30 00:40:58;;;;;;;0.53;0.33;;;;;;;;;;5071711;28;20082;-68
2022/09/30 00:43:50;;;;;;;1.23;0.83;;;;;;;;;;5067874;28;20345;-67
2022/09/30 00:46:36;;;;;;;0.83;0.63;;;;;;;;;;5068136;28;20024;-68
2022/09/30 00:49:07;;;;;;;0.63;0.50;;;;;;;;;;5067891;28;20037;-68
2022/09/30 00:51:36;;;;;;;0.87;0.60;;;;;;;;;;5070771;28;20028;-67
2022/09/30 00:54:06;;;;;;;0.30;0.23;;;;;;;;;;5072481;28;20029;-67
2022/09/30 00:56:37;;;;;;;1.13;0.70;;;;;;;;;;5072897;28;20020;-68
2022/09/30 00:59:24;;;;;;;0.87;0.63;;;;;;;;;;5072469;28;20025;-67
2022/09/30 01:01:50;;;;;;;0.70;0.50;;;;;;;;;;5072666;28;20035;-68
2022/09/30 01:04:28;;;;;;;3.00;0.83;;;;;;;;;;5068947;28;20028;-67
2022/09/30 01:06:55;;;;;;;1.23;0.60;;;;;;;;;;5066970;28;20047;-68
2022/09/30 01:09:22;;;;;;;1.07;0.50;;;;;;;;;;5067292;28;20066;-66
2022/09/30 01:11:49;;;;;;;0.57;0.47;;;;;;;;;;5066851;28;20032;-67
2022/09/30 01:14:18;;;;;;;1.63;0.80;;;;;;;;;;5070927;28;20479;-66
2022/09/30 01:17:20;;;;;;;0.70;0.53;;;;;;;;;;5072032;28;20483;-67
2022/09/30 01:19:58;;;;;;;2.37;0.63;;;;;;;;;;4991078;28;20026;-66
2022/09/30 01:22:34;;;;;;;33.33;1.30;;;;;;;;;;5045575;28;20037;-66
2022/09/30 01:25:12;;;;;;;0.70;0.47;;;;;;;;;;5063028;28;20029;-66
2022/09/30 01:27:57;;;;;;;0.60;0.43;;;;;;;;;;5067328;28;20020;-66
2022/09/30 01:30:42;;;;;;;0.90;0.63;;;;;;;;;;5052403;28;20035;-68
2022/09/30 01:33:27;;;;;;;0.50;0.50;;;;;;;;;;5067469;28;20478;-66
2022/09/30 01:36:00;;;;;;;3.78;1.45;;;;;;;;;;5068642;28;20352;-67
2022/09/30 01:38:29;;;;;;;0.70;0.50;;;;;;;;;;5052365;28;20043;-66
2022/09/30 01:41:01;;;;;;;5.10;0.90;;;;;;;;;;5063443;28;20029;-65
2022/09/30 01:43:31;;;;;;;1.03;0.70;;;;;;;;;;5072015;28;20032;-67
2022/09/30 01:46:12;;;;;;;2.63;0.70;;;;;;;;;;5071677;28;20480;-66
2022/09/30 01:48:46;;;;;;;15.17;1.03;;;;;;;;;;5066707;28;20028;-67
2022/09/30 01:51:33;;;;;;;1.40;0.95;;;;;;;;;;5066504;28;20020;-66
2022/09/30 01:54:05;;;;;;;3.10;1.33;;;;;;;;;;5067292;28;20033;-66
2022/09/30 01:56:39;;;;;;;1.80;0.73;;;;;;;;;;5066700;28;20067;-66
2022/09/30 01:59:20;;;;;;;0.77;0.70;;;;;;;;;;5055917;28;20082;-66
2022/09/30 02:01:59;;;;;;;0.50;0.50;;;;;;;;;;5071927;28;20426;-66
2022/09/30 02:04:33;;;;;;;1.13;0.73;;;;;;;;;;5072495;28;20074;-65
2022/09/30 02:07:07;;;;;;;0.60;0.60;;;;;;;;;;5055521;28;20024;-66
2022/09/30 02:09:36;;;;;;;1.08;0.70;;;;;;;;;;5071612;28;20297;-65
2022/09/30 02:12:08;;;;;;;0.97;0.53;;;;;;;;;;5070060;28;21636;-65
2022/09/30 02:14:45;;;;;;;0.37;0.30;;;;;;;;;;5070878;28;20028;-67
2022/09/30 02:17:22;;;;;;;0.40;0.40;;;;;;;;;;5070715;28;20036;-66
2022/09/30 02:20:02;;;;;;;0.60;0.60;;;;;;;;;;5071376;28;20032;-65
2022/09/30 02:22:35;;;;;;;0.67;0.33;;;;;;;;;;5076232;28;20025;-66
2022/09/30 02:25:05;;;;;;;0.43;0.43;;;;;;;;;;5075683;28;20020;-66
2022/09/30 02:27:39;;;;;;;1.27;0.90;;;;;;;;;;5073848;28;20032;-66
2022/09/30 02:30:08;;;;;;;2.10;1.10;;;;;;;;;;5075488;28;20029;-66
2022/09/30 02:32:51;;;;;;;2.00;0.57;;;;;;;;;;5053982;28;20187;-65
2022/09/30 02:35:37;;;;;;;0.63;0.47;;;;;;;;;;5068763;28;20510;-66
2022/09/30 02:38:13;;;;;;;1.07;0.63;;;;;;;;;;5070522;28;20024;-65
2022/09/30 02:40:50;;;;;;;0.43;0.40;;;;;;;;;;5070611;28;20680;-65
2022/09/30 02:43:19;;;;;;;1.23;0.73;;;;;;;;;;5073239;28;20056;-65
2022/09/30 02:46:12;;;;;;;1.10;0.80;;;;;;;;;;5075576;28;20024;-65
2022/09/30 02:48:44;;;;;;;1.33;0.73;;;;;;;;;;5093226;28;20635;-66
2022/09/30 02:51:10;;;;;;;0.27;0.27;;;;;;;;;;5083894;28;20344;-65
2022/09/30 02:53:45;;;;;;;0.30;0.30;;;;;;;;;;5076081;28;20028;-65
2022/09/30 02:56:15;;;;;;;0.35;0.30;;;;;;;;;;5070789;28;20105;-65
2022/09/30 02:58:43;;;;;;;0.90;0.43;;;;;;;;;;5070499;28;20029;-65
2022/09/30 03:01:11;;;;;;;1.00;0.40;;;;;;;;;;5070562;28;20776;-66
2022/09/30 03:03:44;;;;;;;0.73;0.60;;;;;;;;;;5069651;28;20898;-65
2022/09/30 03:06:12;;;;;;;0.87;0.70;;;;;;;;;;5074609;28;20029;-66
2022/09/30 03:08:38;;;;;;;0.77;0.60;;;;;;;;;;5075201;28;20043;-65
2022/09/30 03:11:11;;;;;;;0.73;0.73;;;;;;;;;;5074880;28;20039;-65
2022/09/30 03:13:40;;;;;;;2.40;0.90;;;;;;;;;;5075073;28;20020;-66
2022/09/30 03:16:39;;;;;;;0.60;0.57;;;;;;;;;;5070089;28;20024;-65
2022/09/30 03:19:17;;;;;;;1.37;0.87;;;;;;;;;;5013059;28;20126;-65
2022/09/30 03:22:04;;;;;;;0.87;0.53;;;;;;;;;;5069373;28;20027;-65
2022/09/30 03:24:51;;;;;;;0.93;0.60;;;;;;;;;;5069644;28;20032;-66
2022/09/30 03:27:23;;;;;;;1.23;0.93;;;;;;;;;;5051916;28;20472;-64
2022/09/30 03:30:02;;;;;;;1.07;0.53;;;;;;;;;;5058185;28;20090;-65
2022/09/30 03:32:44;;;;;;;0.60;0.50;;;;;;;;;;5057174;28;20025;-65
2022/09/30 03:35:11;;;;;;;2.20;1.03;;;;;;;;;;5074702;28;20089;-64
2022/09/30 03:37:51;;;;;;;0.53;0.53;;;;;;;;;;5074864;28;20082;-65
2022/09/30 03:40:30;;;;;;;0.93;0.77;;;;;;;;;;5070655;28;20081;-65
2022/09/30 03:43:05;;;;;;;0.60;0.60;;;;;;;;;;5069676;28;20033;-65
2022/09/30 03:45:35;;;;;;;0.25;0.25;;;;;;;;;;5069554;28;20024;-65
2022/09/30 03:48:05;;;;;;;0.97;0.70;;;;;;;;;;5069238;28;20029;-64
2022/09/30 03:50:32;;;;;;;1.03;0.63;;;;;;;;;;5073029;28;20024;-65
2022/09/30 03:52:59;;;;;;;7.53;1.30;;;;;;;;;;5074153;28;20845;-65
2022/09/30 03:55:26;;;;;;;0.50;0.47;;;;;;;;;;5074299;28;20387;-64
2022/09/30 03:57:53;;;;;;;1.33;0.90;;;;;;;;;;5074103;28;20081;-65
2022/09/30 04:00:20;;;;;;;3.30;2.03;;;;;;;;;;5073758;28;20077;-65
2022/09/30 04:02:48;;;;;;;3.80;0.97;;;;;;;;;;5069644;28;20033;-65
2022/09/30 04:05:15;;;;;;;1.80;1.10;;;;;;;;;;5068731;28;20107;-64
2022/09/30 04:07:42;;;;;;;1.10;0.80;;;;;;;;;;5068298;28;20024;-65
2022/09/30 04:10:12;;;;;;;3.73;1.97;;;;;;;;;;5068800;28;20032;-70
2022/09/30 04:12:39;;;;;;;1.57;1.20;;;;;;;;;;5072536;28;20085;-64
2022/09/30 04:15:06;;;;;;;7.73;1.53;;;;;;;;;;5073610;28;20053;-65
2022/09/30 04:17:37;;;;;;;1.23;0.73;;;;;;;;;;5072895;28;20379;-65
2022/09/30 04:20:04;;;;;;;1.37;0.97;;;;;;;;;;5073253;28;20040;-65
2022/09/30 04:22:31;;;;;;;1.40;1.00;;;;;;;;;;5073694;28;20020;-65
2022/09/30 04:24:58;;;;;;;1.83;0.67;;;;;;;;;;5069400;28;20596;-65
2022/09/30 04:27:26;;;;;;;8.40;1.70;;;;;;;;;;5068548;28;20025;-66
2022/09/30 04:29:53;;;;;;;0.70;0.67;;;;;;;;;;5068433;28;20033;-65
2022/09/30 04:32:21;;;;;;;0.73;0.63;;;;;;;;;;5068520;28;20020;-65
2022/09/30 04:34:48;;;;;;;0.93;0.50;;;;;;;;;;5070670;28;20060;-65
2022/09/30 04:37:15;;;;;;;0.43;0.43;;;;;;;;;;5073215;28;20039;-65
2022/09/30 04:39:43;;;;;;;1.33;0.83;;;;;;;;;;5073427;28;20125;-65
2022/09/30 04:42:10;;;;;;;1.63;1.20;;;;;;;;;;5073339;28;20486;-65
2022/09/30 04:44:36;;;;;;;6.87;1.53;;;;;;;;;;5073665;28;20357;-65
2022/09/30 04:47:05;;;;;;;1.63;1.13;;;;;;;;;;5069481;28;20107;-65
2022/09/30 04:49:32;;;;;;;1.73;1.03;;;;;;;;;;5068390;28;20036;-65
2022/09/30 04:51:59;;;;;;;0.53;0.43;;;;;;;;;;5067249;28;20545;-65
2022/09/30 04:54:25;;;;;;;1.73;1.20;;;;;;;;;;5067890;28;20028;-65
2022/09/30 04:56:52;;;;;;;1.30;0.83;;;;;;;;;;5070908;28;20040;-64
2022/09/30 04:59:19;;;;;;;5.93;1.17;;;;;;;;;;5072941;28;20028;-65
2022/09/30 05:01:46;;;;;;;1.10;0.90;;;;;;;;;;5072984;28;20098;-65
2022/09/30 05:04:15;;;;;;;2.23;1.77;;;;;;;;;;5073592;28;20457;-65
2022/09/30 05:06:41;;;;;;;9.50;1.40;;;;;;;;;;5072646;28;20127;-65
2022/09/30 05:09:08;;;;;;;1.93;1.17;;;;;;;;;;5068360;28;20082;-65
2022/09/30 05:11:36;;;;;;;0.87;0.73;;;;;;;;;;5067888;28;20498;-65
2022/09/30 05:14:08;;;;;;;3.13;1.07;;;;;;;;;;5064288;28;20033;-65
2022/09/30 05:16:34;;;;;;;1.00;0.90;;;;;;;;;;5060476;28;20475;-65
2022/09/30 05:19:01;;;;;;;2.60;1.17;;;;;;;;;;5070221;28;20025;-66
2022/09/30 05:21:28;;;;;;;3.77;1.30;;;;;;;;;;5072368;28;20106;-64
2022/09/30 05:23:55;;;;;;;2.07;1.10;;;;;;;;;;5056086;28;20107;-65
2022/09/30 05:26:21;;;;;;;0.90;0.70;;;;;;;;;;5072499;28;20067;-65
2022/09/30 05:28:48;;;;;;;0.50;0.40;;;;;;;;;;5072253;28;20039;-64
2022/09/30 05:31:15;;;;;;;1.67;1.00;;;;;;;;;;5069558;28;20387;-64
2022/09/30 05:33:42;;;;;;;0.97;0.70;;;;;;;;;;5067399;28;20025;-64
2022/09/30 05:36:09;;;;;;;1.03;0.63;;;;;;;;;;5067431;28;20403;-64
2022/09/30 05:38:36;;;;;;;1.23;0.93;;;;;;;;;;5066933;28;20108;-65
2022/09/30 05:41:12;;;;;;;0.50;0.50;;;;;;;;;;5069487;28;20483;-64
2022/09/30 05:43:49;;;;;;;2.10;1.33;;;;;;;;;;5072416;28;20017;-64
2022/09/30 05:46:16;;;;;;;1.00;0.73;;;;;;;;;;5071682;28;20047;-64
2022/09/30 05:48:43;;;;;;;1.23;0.83;;;;;;;;;;5072281;28;20028;-64
2022/09/30 05:51:10;;;;;;;0.77;0.67;;;;;;;;;;5071593;28;20025;-64
2022/09/30 05:53:37;;;;;;;0.77;0.73;;;;;;;;;;5069242;28;20107;-64
2022/09/30 05:56:08;;;;;;;1.17;0.90;;;;;;;;;;5066876;28;20025;-64
2022/09/30 05:58:36;;;;;;;0.87;0.57;;;;;;;;;;5066732;28;20116;-65
2022/09/30 06:01:10;;;;;;;0.80;0.60;;;;;;;;;;5066556;28;20070;-64
2022/09/30 06:03:37;;;;;;;0.43;0.37;;;;;;;;;;5070103;28;20079;-64
2022/09/30 06:06:04;;;;;;;0.30;0.30;;;;;;;;;;5071734;28;20028;-65
2022/09/30 06:08:31;;;;;;;0.57;0.40;;;;;;;;;;5071869;28;20514;-65
2022/09/30 06:10:58;;;;;;;1.20;0.53;;;;;;;;;;5072084;28;20028;-64
2022/09/30 06:13:26;;;;;;;1.37;0.80;;;;;;;;;;5072041;28;20483;-64
2022/09/30 06:16:00;;;;;;;0.37;0.37;;;;;;;;;;5068844;28;20043;-64
2022/09/30 06:18:27;;;;;;;0.90;0.80;;;;;;;;;;5066391;28;20024;-64
2022/09/30 06:20:57;;;;;;;0.57;0.57;;;;;;;;;;5066074;28;20108;-64
2022/09/30 06:23:25;;;;;;;2.23;0.50;;;;;;;;;;5067007;28;20032;-64
2022/09/30 06:25:52;;;;;;;1.27;0.53;;;;;;;;;;5063422;28;20020;-64
2022/09/30 06:28:19;;;;;;;1.03;0.60;;;;;;;;;;5071649;28;20025;-64
2022/09/30 06:30:46;;;;;;;0.70;0.60;;;;;;;;;;5071740;28;20050;-64
2022/09/30 06:33:13;;;;;;;1.47;0.40;;;;;;;;;;5071648;28;20021;-64
2022/09/30 06:35:41;;;;;;;4.10;1.27;;;;;;;;;;5071248;28;20053;-64
2022/09/30 06:38:11;;;;;;;0.67;0.53;;;;;;;;;;5068423;28;20028;-64
2022/09/30 06:40:37;;;;;;;0.30;0.30;;;;;;;;;;5066706;28;20024;-64
2022/09/30 06:43:05;;;;;;;0.83;0.57;;;;;;;;;;5066700;28;20060;-64
2022/09/30 06:45:34;;;;;;;0.40;0.40;;;;;;;;;;5066542;28;20110;-65
2022/09/30 06:48:01;;;;;;;0.77;0.60;;;;;;;;;;5069348;28;20032;-64
2022/09/30 06:50:29;;;;;;;0.33;0.27;;;;;;;;;;5071352;28;20071;-64
2022/09/30 06:53:00;;;;;;;0.20;0.10;;;;;;;;;;5071909;28;20073;-65
2022/09/30 06:55:27;;;;;;;1.40;0.53;;;;;;;;;;5071702;28;20025;-64
2022/09/30 06:57:54;;;;;;;0.83;0.50;;;;;;;;;;5072408;28;20467;-64
2022/09/30 07:00:22;;;;;;;0.40;0.40;;;;;;;;;;5071723;28;20044;-64
2022/09/30 07:02:49;;;;;;;0.80;0.60;;;;;;;;;;5069831;28;20029;-64
2022/09/30 07:05:16;;;;;;;0.83;0.73;;;;;;;;;;5070080;28;20041;-64
2022/09/30 07:07:43;;;;;;;1.17;0.80;;;;;;;;;;5070039;28;20423;-64
2022/09/30 07:10:10;;;;;;;0.40;0.30;;;;;;;;;;5072399;28;20029;-64
2022/09/30 07:12:36;;;;;;;2.37;0.70;;;;;;;;;;5074655;28;20020;-65
2022/09/30 07:15:03;;;;;;;1.60;0.70;;;;;;;;;;5074834;28;20029;-64
2022/09/30 07:17:30;;;;;;;0.87;0.70;;;;;;;;;;5092819;28;20024;-64
2022/09/30 07:19:58;;;;;;;0.20;0.20;;;;;;;;;;5091138;28;20413;-64
2022/09/30 07:22:33;;;;;;;0.40;0.40;;;;;;;;;;5072581;28;20028;-64
2022/09/30 07:25:02;;;;;;;0.57;0.40;;;;;;;;;;5069906;28;20103;-64
2022/09/30 07:27:31;;;;;;;0.80;0.70;;;;;;;;;;5070011;28;20032;-64
2022/09/30 07:29:59;;;;;;;0.70;0.53;;;;;;;;;;5069958;28;20032;-64
2022/09/30 07:32:26;;;;;;;1.33;1.00;;;;;;;;;;5072016;28;20035;-64
2022/09/30 07:34:52;;;;;;;0.53;0.43;;;;;;;;;;5074575;28;20029;-64
2022/09/30 07:37:20;;;;;;;0.33;0.33;;;;;;;;;;5058741;28;20016;-64
2022/09/30 07:39:48;;;;;;;0.87;0.60;;;;;;;;;;5074716;28;20017;-64
2022/09/30 07:42:18;;;;;;;0.30;0.30;;;;;;;;;;5074292;28;20028;-65
2022/09/30 07:44:45;;;;;;;12.87;0.73;;;;;;;;;;5051133;28;20021;-64
2022/09/30 07:47:13;;;;;;;0.77;0.47;;;;;;;;;;5067248;28;20565;-64
2022/09/30 07:49:41;;;;;;;1.07;0.83;;;;;;;;;;5069564;28;20036;-64
2022/09/30 07:52:08;;;;;;;5.83;1.10;;;;;;;;;;5069427;28;20040;-65
2022/09/30 07:54:35;;;;;;;0.37;0.37;;;;;;;;;;5071356;28;20033;-64
2022/09/30 07:57:02;;;;;;;1.53;1.03;;;;;;;;;;5073927;28;20416;-64
2022/09/30 07:59:30;;;;;;;0.50;0.37;;;;;;;;;;5073725;28;20510;-64
2022/09/30 08:01:57;;;;;;;1.00;0.43;;;;;;;;;;5073911;28;20059;-64
2022/09/30 08:04:25;;;;;;;0.97;0.70;;;;;;;;;;5073775;28;20171;-64
2022/09/30 08:06:54;;;;;;;0.60;0.40;;;;;;;;;;5053127;28;20035;-64
2022/09/30 08:09:22;;;;;;;0.63;0.63;;;;;;;;;;5051753;28;20028;-64
2022/09/30 08:11:49;;;;;;;0.30;0.30;;;;;;;;;;5068954;28;20027;-64
2022/09/30 08:14:20;;;;;;;0.63;0.50;;;;;;;;;;5063403;28;20407;-64
2022/09/30 08:16:47;;;;;;;2.17;0.70;;;;;;;;;;5063947;28;20024;-64
2022/09/30 08:19:18;;;;;;;1.50;0.73;;;;;;;;;;5074428;28;20463;-64
2022/09/30 08:21:44;;;;;;;0.20;0.20;;;;;;;;;;5073831;28;20020;-64
2022/09/30 08:24:12;;;;;;;1.47;0.90;;;;;;;;;;5073704;28;20020;-64
2022/09/30 08:26:39;;;;;;;0.50;0.50;;;;;;;;;;5073539;28;20031;-64
2022/09/30 08:29:06;;;;;;;1.10;0.80;;;;;;;;;;5069952;28;20411;-64
2022/09/30 08:31:33;;;;;;;2.73;0.83;;;;;;;;;;5068290;28;20035;-64
2022/09/30 08:34:01;;;;;;;1.40;0.80;;;;;;;;;;5068080;28;20032;-64
2022/09/30 08:36:29;;;;;;;0.37;0.30;;;;;;;;;;5068260;28;20029;-64
2022/09/30 08:38:55;;;;;;;2.17;1.17;;;;;;;;;;5069818;28;20021;-65
2022/09/30 08:41:37;;;;;;;0.20;0.20;;;;;;;;;;5073154;28;20028;-64
2022/09/30 08:44:23;;;;;;;2.00;0.83;;;;;;;;;;5073494;28;20020;-64
2022/09/30 08:47:06;;;;;;;0.38;0.30;;;;;;;;;;5057352;28;20020;-64
2022/09/30 08:49:39;;;;;;;0.70;0.60;;;;;;;;;;5073266;28;20028;-64
2022/09/30 08:52:11;;;;;;;0.43;0.40;;;;;;;;;;5067854;28;20028;-64
2022/09/30 08:54:41;;;;;;;0.20;0.20;;;;;;;;;;5068468;28;20028;-64
2022/09/30 08:57:11;;;;;;;0.40;0.27;;;;;;;;;;5068143;28;20031;-64
2022/09/30 08:59:49;;;;;;;0.40;0.40;;;;;;;;;;5067923;28;20047;-64
2022/09/30 09:02:16;;;;;;;0.20;0.20;;;;;;;;;;5072862;28;20031;-64
2022/09/30 09:04:43;;;;;;;0.23;0.20;;;;;;;;;;5072531;28;20036;-64
2022/09/30 09:07:17;;;;;;;0.53;0.50;;;;;;;;;;5072419;28;20474;-64
2022/09/30 09:10:07;;;;;;;0.23;0.23;;;;;;;;;;5073199;28;20430;-64
2022/09/30 09:12:33;;;;;;;0.40;0.33;;;;;;;;;;5060643;28;20068;-64
2022/09/30 09:15:12;;;;;;;0.23;0.23;;;;;;;;;;5056717;28;20017;-64
2022/09/30 09:17:54;;;;;;;0.77;0.43;;;;;;;;;;5065994;28;20033;-64
2022/09/30 09:20:23;;;;;;;0.67;0.50;;;;;;;;;;5067471;28;20032;-64
2022/09/30 09:22:50;;;;;;;2.27;0.83;;;;;;;;;;5068892;28;20057;-64
2022/09/30 09:25:19;;;;;;;1.23;0.73;;;;;;;;;;5072848;28;20047;-63
2022/09/30 09:27:45;;;;;;;0.30;0.27;;;;;;;;;;5072450;28;20032;-64
2022/09/30 09:30:14;;;;;;;0.23;0.23;;;;;;;;;;5072420;28;20495;-63
2022/09/30 09:32:42;;;;;;;3.30;0.70;;;;;;;;;;5072156;28;20024;-63
2022/09/30 09:35:38;;;;;;;0.27;0.27;;;;;;;;;;5070264;28;20082;-64
2022/09/30 09:38:37;;;;;;;0.17;0.17;;;;;;;;;;5036202;28;20388;-64
2022/09/30 09:41:06;;;;;;;3.30;0.60;;;;;;;;;;5013677;28;20063;-63
2022/09/30 09:43:43;;;;;;;0.20;0.20;;;;;;;;;;5067250;28;20052;-64
2022/09/30 09:46:12;;;;;;;0.20;0.20;;;;;;;;;;5070858;28;20056;-63
2022/09/30 09:48:39;;;;;;;0.50;0.50;;;;;;;;;;5072088;28;20036;-63
2022/09/30 09:51:24;;;;;;;0.20;0.20;;;;;;;;;;5072181;28;20044;-64
2022/09/30 09:53:52;;;;;;;0.98;0.63;;;;;;;;;;5072113;28;20383;-64
2022/09/30 09:56:20;;;;;;;0.53;0.50;;;;;;;;;;5087689;28;20019;-64
2022/09/30 09:59:07;;;;;;;0.63;0.60;;;;;;;;;;5084747;28;20532;-64
2022/09/30 10:01:35;;;;;;;0.20;0.20;;;;;;;;;;5066786;28;20052;-64
2022/09/30 10:04:16;;;;;;;0.83;0.73;;;;;;;;;;5067088;28;20074;-64
2022/09/30 10:06:43;;;;;;;0.70;0.30;;;;;;;;;;5067219;28;20025;-64
2022/09/30 10:09:21;;;;;;;0.67;0.30;;;;;;;;;;5071772;28;20074;-64
2022/09/30 10:11:48;;;;;;;0.17;0.17;;;;;;;;;;5071727;28;20044;-64
2022/09/30 10:14:20;;;;;;;0.20;0.20;;;;;;;;;;5066832;28;20025;-64
2022/09/30 10:16:47;;;;;;;0.10;0.10;;;;;;;;;;5089346;28;20024;-63
2022/09/30 10:19:21;;;;;;;0.50;0.30;;;;;;;;;;5085389;28;20021;-64
2022/09/30 10:21:48;;;;;;;0.20;0.20;;;;;;;;;;5067111;28;20558;-64
2022/09/30 10:24:31;;;;;;;0.30;0.30;;;;;;;;;;5067159;28;20021;-63
2022/09/30 10:26:58;;;;;;;0.17;0.13;;;;;;;;;;5066904;28;20115;-64
2022/09/30 10:29:30;;;;;;;0.63;0.40;;;;;;;;;;5068667;28;20040;-63
2022/09/30 10:32:01;;;;;;;0.70;0.50;;;;;;;;;;5081898;28;20020;-63
2022/09/30 10:34:28;;;;;;;0.33;0.27;;;;;;;;;;5095910;28;20318;-63
2022/09/30 10:36:56;;;;;;;0.60;0.50;;;;;;;;;;5096682;28;20401;-63
2022/09/30 10:39:27;;;;;;;0.20;0.20;;;;;;;;;;5096002;28;20252;-64
2022/09/30 10:42:22;;;;;;;0.60;0.50;;;;;;;;;;5093789;28;20103;-63
2022/09/30 10:44:54;;;;;;;0.43;0.43;;;;;;;;;;5089623;28;20269;-64
2022/09/30 10:47:25;;;;;;;2.30;0.87;;;;;;;;;;5090905;28;20035;-64
2022/09/30 10:50:03;;;;;;;0.57;0.50;;;;;;;;;;5071233;28;20289;-63
2022/09/30 10:52:35;;;;;;;0.20;0.20;;;;;;;;;;5073795;28;20017;-63
2022/09/30 10:55:07;;;;;;;1.37;0.73;;;;;;;;;;5075769;28;20654;-63
2022/09/30 10:57:36;;;;;;;2.07;0.47;;;;;;;;;;5075537;28;20684;-63
2022/09/30 11:00:09;;;;;;;0.67;0.40;;;;;;;;;;5075451;28;20272;-63
2022/09/30 11:02:39;;;;;;;1.70;0.87;;;;;;;;;;5074902;28;20265;-63
2022/09/30 11:05:06;;;;;;;3.53;1.03;;;;;;;;;;5071218;28;20104;-64
2022/09/30 11:07:33;;;;;;;3.37;1.20;;;;;;;;;;5069814;28;20024;-63
2022/09/30 11:10:07;;;;;;;0.50;0.50;;;;;;;;;;5069600;28;20718;-64
2022/09/30 11:12:51;;;;;;;0.30;0.23;;;;;;;;;;5069613;28;20272;-63
2022/09/30 11:15:24;;;;;;;0.40;0.30;;;;;;;;;;5074624;28;20336;-64
2022/09/30 11:18:00;;;;;;;0.53;0.50;;;;;;;;;;5059960;28;20021;-63
2022/09/30 11:20:32;;;;;;;0.50;0.40;;;;;;;;;;5075021;28;20611;-64
2022/09/30 11:23:02;;;;;;;0.97;0.53;;;;;;;;;;5074273;28;20277;-63
2022/09/30 11:25:47;;;;;;;0.50;0.50;;;;;;;;;;5074093;28;20257;-64
2022/09/30 11:28:24;;;;;;;0.15;0.15;;;;;;;;;;5070022;28;20675;-63
2022/09/30 11:30:57;;;;;;;0.30;0.30;;;;;;;;;;5069586;28;20032;-64
2022/09/30 11:33:34;;;;;;;0.40;0.30;;;;;;;;;;5049992;28;20250;-63
2022/09/30 11:36:19;;;;;;;0.10;0.10;;;;;;;;;;5057262;28;20265;-64
2022/09/30 11:38:58;;;;;;;2.63;0.68;;;;;;;;;;5074582;28;20723;-63
2022/09/30 11:41:33;;;;;;;0.27;0.23;;;;;;;;;;5074060;28;20024;-64
2022/09/30 11:44:04;;;;;;;0.15;0.15;;;;;;;;;;5073253;28;20257;-61
2022/09/30 11:46:47;;;;;;;0.30;0.30;;;;;;;;;;5074586;28;20035;-62
2022/09/30 11:49:26;;;;;;;0.23;0.23;;;;;;;;;;5070369;28;20289;-62
2022/09/30 11:52:08;;;;;;;0.43;0.43;;;;;;;;;;5069148;28;20269;-62
2022/09/30 11:54:43;;;;;;;0.23;0.23;;;;;;;;;;5069118;28;21049;-62
2022/09/30 11:57:10;;;;;;;0.55;0.55;;;;;;;;;;5053251;28;20285;-62
2022/09/30 11:59:55;;;;;;;0.47;0.43;;;;;;;;;;5074174;28;20021;-62
2022/09/30 12:02:22;;;;;;;0.40;0.40;;;;;;;;;;5074044;28;20324;-62
2022/09/30 12:04:52;;;;;;;1.73;0.97;;;;;;;;;;5073690;28;20344;-62
2022/09/30 12:07:27;;;;;;;0.20;0.20;;;;;;;;;;5074072;28;20609;-62
2022/09/30 12:09:57;;;;;;;1.00;0.70;;;;;;;;;;5073056;28;20289;-61
2022/09/30 12:12:24;;;;;;;0.97;0.70;;;;;;;;;;5068912;28;20103;-62
2022/09/30 12:14:51;;;;;;;0.73;0.73;;;;;;;;;;5068254;28;20273;-62
2022/09/30 12:17:30;;;;;;;0.40;0.40;;;;;;;;;;5068921;28;20301;-62
2022/09/30 12:20:00;;;;;;;1.30;0.83;;;;;;;;;;5069984;28;20297;-62
2022/09/30 12:22:37;;;;;;;3.83;0.90;;;;;;;;;;5073576;28;20658;-62
2022/09/30 12:25:13;;;;;;;0.43;0.43;;;;;;;;;;5073812;28;20356;-62
2022/09/30 12:27:45;;;;;;;1.70;0.83;;;;;;;;;;5073732;28;20348;-61
2022/09/30 12:30:17;;;;;;;0.50;0.50;;;;;;;;;;5073683;28;20289;-62
2022/09/30 12:32:53;;;;;;;3.40;1.60;;;;;;;;;;5067329;28;20273;-62
2022/09/30 12:35:32;;;;;;;1.43;0.43;;;;;;;;;;5068098;28;20751;-62
2022/09/30 12:38:08;;;;;;;7.93;0.53;;;;;;;;;;5048692;28;20622;-62
2022/09/30 12:40:57;;;;;;;0.60;0.50;;;;;;;;;;5051578;28;20779;-62
2022/09/30 12:43:42;;;;;;;1.50;0.40;;;;;;;;;;5071869;28;20320;-62
2022/09/30 12:46:28;;;;;;;0.70;0.70;;;;;;;;;;5073121;28;20272;-62
2022/09/30 12:48:57;;;;;;;0.30;0.30;;;;;;;;;;5073306;28;20078;-62
2022/09/30 12:51:27;;;;;;;4.57;0.83;;;;;;;;;;5073148;28;20729;-62
2022/09/30 12:53:58;;;;;;;16.67;0.97;;;;;;;;;;5073054;28;20699;-62
2022/09/30 12:56:27;;;;;;;0.73;0.60;;;;;;;;;;5066932;28;20261;-62
2022/09/30 12:58:56;;;;;;;8.93;1.07;;;;;;;;;;5068007;28;20269;-62
2022/09/30 13:01:25;;;;;;;5.27;1.53;;;;;;;;;;5067538;28;20280;-62
2022/09/30 13:03:53;;;;;;;0.60;0.50;;;;;;;;;;5068139;28;20266;-63
2022/09/30 13:06:21;;;;;;;4.73;1.17;;;;;;;;;;5072674;28;20280;-63
2022/09/30 13:08:48;;;;;;;15.93;1.50;;;;;;;;;;5072984;28;20261;-62
2022/09/30 13:11:30;;;;;;;28.67;0.97;;;;;;;;;;5072253;28;20284;-62
2022/09/30 13:13:59;;;;;;;0.63;0.47;;;;;;;;;;5072488;28;20767;-61
2022/09/30 13:16:46;;;;;;;1.23;1.07;;;;;;;;;;5070498;28;20763;-62
2022/09/30 13:19:20;;;;;;;1.70;1.03;;;;;;;;;;5067593;28;21021;-62
2022/09/30 13:21:47;;;;;;;7.37;1.40;;;;;;;;;;5066815;28;20598;-62
2022/09/30 13:24:16;;;;;;;2.70;1.37;;;;;;;;;;5066769;28;20016;-63
2022/09/30 13:26:47;;;;;;;6.07;1.27;;;;;;;;;;5067480;28;20032;-62
2022/09/30 13:29:15;;;;;;;1.33;0.90;;;;;;;;;;5070027;28;20041;-62
2022/09/30 13:31:50;;;;;;;1.23;0.70;;;;;;;;;;5070318;28;20029;-63
2022/09/30 13:34:26;;;;;;;2.83;1.77;;;;;;;;;;5070897;28;20472;-62
2022/09/30 13:36:52;;;;;;;2.43;1.47;;;;;;;;;;5070477;28;20123;-63
2022/09/30 13:39:27;;;;;;;0.50;0.40;;;;;;;;;;5068257;28;20028;-62
2022/09/30 13:42:12;;;;;;;0.73;0.55;;;;;;;;;;5067069;28;20120;-62
2022/09/30 13:44:40;;;;;;;1.23;0.70;;;;;;;;;;5066809;28;20025;-62
2022/09/30 13:47:15;;;;;;;3.37;0.80;;;;;;;;;;5066821;28;20028;-63
2022/09/30 13:49:57;;;;;;;1.23;0.60;;;;;;;;;;5069705;28;20094;-63
2022/09/30 13:52:32;;;;;;;2.70;0.63;;;;;;;;;;5071737;28;20033;-62
2022/09/30 13:55:02;;;;;;;0.00;0.00;;;;;;;;;;5071935;28;20479;-62
2022/09/30 13:57:36;;;;;;;0.77;0.43;;;;;;;;;;5072004;28;20023;-62
2022/09/30 14:00:03;;;;;;;0.70;0.40;;;;;;;;;;5072069;28;20025;-63
2022/09/30 14:02:41;;;;;;;1.63;0.70;;;;;;;;;;5066822;28;20326;-63
2022/09/30 14:05:26;;;;;;;0.53;0.27;;;;;;;;;;5066934;28;20040;-63
2022/09/30 14:08:22;;;;;;;0.98;0.40;;;;;;;;;;5054585;28;20471;-63
2022/09/30 14:10:55;;;;;;;1.23;0.50;;;;;;;;;;4996342;28;20054;-63
2022/09/30 14:13:36;;;;;;;0.70;0.60;;;;;;;;;;5071697;28;20033;-63
2022/09/30 14:16:21;;;;;;;0.60;0.30;;;;;;;;;;5071802;28;20037;-63
2022/09/30 14:18:53;;;;;;;0.22;0.22;;;;;;;;;;5071558;28;20021;-63
2022/09/30 14:21:24;;;;;;;0.77;0.50;;;;;;;;;;5065229;28;20028;-63
2022/09/30 14:24:20;;;;;;;1.13;0.63;;;;;;;;;;5068535;28;20024;-63
2022/09/30 14:26:59;;;;;;;0.23;0.23;;;;;;;;;;5049328;28;20036;-63
2022/09/30 14:29:44;;;;;;;1.60;0.63;;;;;;;;;;5066620;28;20025;-63
2022/09/30 14:32:12;;;;;;;0.65;0.32;;;;;;;;;;5066139;28;20029;-64
2022/09/30 14:34:39;;;;;;;0.43;0.30;;;;;;;;;;5071567;28;20027;-63
2022/09/30 14:37:06;;;;;;;1.20;0.67;;;;;;;;;;5071684;28;20032;-63
2022/09/30 14:39:33;;;;;;;3.57;1.10;;;;;;;;;;5071678;28;20025;-63
2022/09/30 14:42:04;;;;;;;2.53;1.20;;;;;;;;;;5071565;28;20040;-63
2022/09/30 14:44:35;;;;;;;1.60;0.83;;;;;;;;;;5071467;28;20031;-63
2022/09/30 14:47:03;;;;;;;2.23;0.80;;;;;;;;;;5066183;28;20476;-63
2022/09/30 14:49:33;;;;;;;0.70;0.50;;;;;;;;;;5066368;28;20032;-66
2022/09/30 14:52:02;;;;;;;2.80;1.10;;;;;;;;;;5065635;28;20035;-64
2022/09/30 14:54:29;;;;;;;9.27;0.97;;;;;;;;;;5066181;28;20028;-64
2022/09/30 14:56:57;;;;;;;2.93;0.93;;;;;;;;;;5071595;28;20032;-63
2022/09/30 14:59:30;;;;;;;1.87;0.73;;;;;;;;;;5071656;28;20116;-64
2022/09/30 15:02:01;;;;;;;2.53;1.30;;;;;;;;;;5071011;28;20070;-63
2022/09/30 15:04:30;;;;;;;1.10;0.73;;;;;;;;;;5051132;28;20090;-64
2022/09/30 15:06:59;;;;;;;2.87;0.90;;;;;;;;;;5064236;28;20551;-66
2022/09/30 15:09:49;;;;;;;0.10;0.10;;;;;;;;;;5066243;28;20086;-63
2022/09/30 15:12:18;;;;;;;1.27;0.70;;;;;;;;;;5055611;28;20127;-64